sensor_id;sensor_type;location;lat;lon;timestamp;temperature;humidity
5118;DHT22;2578;51.622;7.046;2022-08-19T00:00:09;15.80;99.90
5118;DHT22;2578;51.622;7.046;2022-08-19T00:02:36;15.70;99.90
5118;DHT22;2578;51.622;7.046;2022-08-19T00:05:02;15.70;99.90
5118;DHT22;2578;51.622;7.046;2022-08-19T00:07:28;15.60;99.90
5118;DHT22;2578;51.622;7.046;2022-08-19T00:09:54;15.60;99.90
5118;DHT22;2578;51.622;7.046;2022-08-19T00:12:20;15.70;99.90
5118;DHT22;2578;51.622;7.046;2022-08-19T00:14:45;15.70;99.90
5118;DHT22;2578;51.622;7.046;2022-08-19T00:17:11;15.80;99.90
5118;DHT22;2578;51.622;7.046;2022-08-19T00:19:38;15.80;99.90
5118;DHT22;2578;51.622;7.046;2022-08-19T00:22:04;15.80;99.90
5118;DHT22;2578;51.622;7.046;2022-08-19T00:24:31;15.60;99.90
5118;DHT22;2578;51.622;7.046;2022-08-19T00:26:57;15.60;99.90
5118;DHT22;2578;51.622;7.046;2022-08-19T00:29:24;15.60;99.90
5118;DHT22;2578;51.622;7.046;2022-08-19T00:31:51;15.60;99.90
5118;DHT22;2578;51.622;7.046;2022-08-19T00:34:23;15.60;99.90
5118;DHT22;2578;51.622;7.046;2022-08-19T00:36:54;15.60;99.90
5118;DHT22;2578;51.622;7.046;2022-08-19T00:39:20;15.60;99.90
5118;DHT22;2578;51.622;7.046;2022-08-19T00:41:47;15.60;99.90
5118;DHT22;2578;51.622;7.046;2022-08-19T00:44:18;15.50;99.90
5118;DHT22;2578;51.622;7.046;2022-08-19T00:46:48;15.50;99.90
5118;DHT22;2578;51.622;7.046;2022-08-19T00:49:18;15.50;99.90
5118;DHT22;2578;51.622;7.046;2022-08-19T00:51:47;15.60;99.90
5118;DHT22;2578;51.622;7.046;2022-08-19T00:54:15;15.60;99.90
5118;DHT22;2578;51.622;7.046;2022-08-19T00:56:41;15.50;99.90
5118;DHT22;2578;51.622;7.046;2022-08-19T00:59:07;15.50;99.90
5118;DHT22;2578;51.622;7.046;2022-08-19T01:01:36;15.50;99.90
5118;DHT22;2578;51.622;7.046;2022-08-19T01:04:02;15.40;99.90
5118;DHT22;2578;51.622;7.046;2022-08-19T01:06:27;15.40;99.90
5118;DHT22;2578;51.622;7.046;2022-08-19T01:08:54;15.40;99.90
5118;DHT22;2578;51.622;7.046;2022-08-19T01:11:20;15.30;99.90
5118;DHT22;2578;51.622;7.046;2022-08-19T01:13:46;15.30;99.90
5118;DHT22;2578;51.622;7.046;2022-08-19T01:16:12;15.30;99.90
5118;DHT22;2578;51.622;7.046;2022-08-19T01:18:42;15.30;99.90
5118;DHT22;2578;51.622;7.046;2022-08-19T01:21:12;15.20;99.90
5118;DHT22;2578;51.622;7.046;2022-08-19T01:23:40;15.20;99.90
5118;DHT22;2578;51.622;7.046;2022-08-19T01:26:12;15.20;99.90
5118;DHT22;2578;51.622;7.046;2022-08-19T01:28:39;15.20;99.90
5118;DHT22;2578;51.622;7.046;2022-08-19T01:31:06;15.20;99.90
5118;DHT22;2578;51.622;7.046;2022-08-19T01:33:32;15.30;99.90
5118;DHT22;2578;51.622;7.046;2022-08-19T01:36:11;15.30;99.90
5118;DHT22;2578;51.622;7.046;2022-08-19T01:38:40;15.20;99.90
5118;DHT22;2578;51.622;7.046;2022-08-19T01:41:08;15.20;99.90
5118;DHT22;2578;51.622;7.046;2022-08-19T01:43:34;15.10;99.90
5118;DHT22;2578;51.622;7.046;2022-08-19T01:46:00;15.00;99.90
5118;DHT22;2578;51.622;7.046;2022-08-19T01:48:26;15.00;99.90
5118;DHT22;2578;51.622;7.046;2022-08-19T01:50:52;15.10;99.90
5118;DHT22;2578;51.622;7.046;2022-08-19T01:53:18;15.10;99.90
5118;DHT22;2578;51.622;7.046;2022-08-19T01:55:43;15.00;99.90
5118;DHT22;2578;51.622;7.046;2022-08-19T01:58:17;15.00;99.90
5118;DHT22;2578;51.622;7.046;2022-08-19T02:00:44;14.90;99.90
5118;DHT22;2578;51.622;7.046;2022-08-19T02:03:10;15.00;99.90
5118;DHT22;2578;51.622;7.046;2022-08-19T02:05:36;14.90;99.90
5118;DHT22;2578;51.622;7.046;2022-08-19T02:08:03;14.90;99.90
5118;DHT22;2578;51.622;7.046;2022-08-19T02:10:28;14.80;99.90
5118;DHT22;2578;51.622;7.046;2022-08-19T02:12:54;14.80;99.90
5118;DHT22;2578;51.622;7.046;2022-08-19T02:15:20;14.80;99.90
5118;DHT22;2578;51.622;7.046;2022-08-19T02:17:47;14.80;99.90
5118;DHT22;2578;51.622;7.046;2022-08-19T02:20:14;14.80;99.90
5118;DHT22;2578;51.622;7.046;2022-08-19T02:22:41;14.70;99.90
5118;DHT22;2578;51.622;7.046;2022-08-19T02:25:09;14.70;99.90
5118;DHT22;2578;51.622;7.046;2022-08-19T02:27:35;14.60;99.90
5118;DHT22;2578;51.622;7.046;2022-08-19T02:30:01;14.60;99.90
5118;DHT22;2578;51.622;7.046;2022-08-19T02:32:27;14.60;99.90
5118;DHT22;2578;51.622;7.046;2022-08-19T02:34:53;14.60;99.90
5118;DHT22;2578;51.622;7.046;2022-08-19T02:37:18;14.60;99.90
5118;DHT22;2578;51.622;7.046;2022-08-19T02:40:03;14.60;99.90
5118;DHT22;2578;51.622;7.046;2022-08-19T02:42:29;14.60;99.90
5118;DHT22;2578;51.622;7.046;2022-08-19T02:44:55;14.60;99.90
5118;DHT22;2578;51.622;7.046;2022-08-19T02:47:21;14.60;99.90
5118;DHT22;2578;51.622;7.046;2022-08-19T02:49:46;14.60;99.90
5118;DHT22;2578;51.622;7.046;2022-08-19T02:52:15;14.60;99.90
5118;DHT22;2578;51.622;7.046;2022-08-19T02:54:40;14.60;99.90
5118;DHT22;2578;51.622;7.046;2022-08-19T02:57:06;14.60;99.90
5118;DHT22;2578;51.622;7.046;2022-08-19T02:59:33;14.60;99.90
5118;DHT22;2578;51.622;7.046;2022-08-19T03:01:58;14.60;99.90
5118;DHT22;2578;51.622;7.046;2022-08-19T03:04:24;14.60;99.90
5118;DHT22;2578;51.622;7.046;2022-08-19T03:06:50;14.60;99.90
5118;DHT22;2578;51.622;7.046;2022-08-19T03:09:18;14.60;99.90
5118;DHT22;2578;51.622;7.046;2022-08-19T03:11:44;14.50;99.90
5118;DHT22;2578;51.622;7.046;2022-08-19T03:14:10;14.50;99.90
5118;DHT22;2578;51.622;7.046;2022-08-19T03:16:48;14.50;99.90
5118;DHT22;2578;51.622;7.046;2022-08-19T03:19:16;14.50;99.90
5118;DHT22;2578;51.622;7.046;2022-08-19T03:21:43;14.50;99.90
5118;DHT22;2578;51.622;7.046;2022-08-19T03:24:12;14.40;99.90
5118;DHT22;2578;51.622;7.046;2022-08-19T03:26:40;14.40;99.90
5118;DHT22;2578;51.622;7.046;2022-08-19T03:29:09;14.40;99.90
5118;DHT22;2578;51.622;7.046;2022-08-19T03:31:37;14.50;99.90
5118;DHT22;2578;51.622;7.046;2022-08-19T03:34:04;14.50;99.90
5118;DHT22;2578;51.622;7.046;2022-08-19T03:36:30;14.40;99.90
5118;DHT22;2578;51.622;7.046;2022-08-19T03:38:59;14.50;99.90
5118;DHT22;2578;51.622;7.046;2022-08-19T03:41:36;14.40;99.90
5118;DHT22;2578;51.622;7.046;2022-08-19T03:44:02;14.50;99.90
5118;DHT22;2578;51.622;7.046;2022-08-19T03:46:31;14.40;99.90
5118;DHT22;2578;51.622;7.046;2022-08-19T03:48:59;14.40;99.90
5118;DHT22;2578;51.622;7.046;2022-08-19T03:51:34;14.40;99.90
5118;DHT22;2578;51.622;7.046;2022-08-19T03:54:03;14.20;99.90
5118;DHT22;2578;51.622;7.046;2022-08-19T03:56:29;14.20;99.90
5118;DHT22;2578;51.622;7.046;2022-08-19T03:58:57;14.20;99.90
5118;DHT22;2578;51.622;7.046;2022-08-19T04:01:26;14.20;99.90
5118;DHT22;2578;51.622;7.046;2022-08-19T04:03:52;14.20;99.90
5118;DHT22;2578;51.622;7.046;2022-08-19T04:06:27;14.20;99.90
5118;DHT22;2578;51.622;7.046;2022-08-19T04:08:54;14.20;99.90
5118;DHT22;2578;51.622;7.046;2022-08-19T04:11:23;14.20;99.90
5118;DHT22;2578;51.622;7.046;2022-08-19T04:13:50;14.20;99.90
5118;DHT22;2578;51.622;7.046;2022-08-19T04:16:17;14.10;99.90
5118;DHT22;2578;51.622;7.046;2022-08-19T04:18:43;14.10;99.90
5118;DHT22;2578;51.622;7.046;2022-08-19T04:21:16;14.10;99.90
5118;DHT22;2578;51.622;7.046;2022-08-19T04:23:42;14.20;99.90
5118;DHT22;2578;51.622;7.046;2022-08-19T04:26:13;14.20;99.90
5118;DHT22;2578;51.622;7.046;2022-08-19T04:28:39;14.20;99.90
5118;DHT22;2578;51.622;7.046;2022-08-19T04:31:05;14.20;99.90
5118;DHT22;2578;51.622;7.046;2022-08-19T04:33:30;14.30;99.90
5118;DHT22;2578;51.622;7.046;2022-08-19T04:35:56;14.50;99.90
5118;DHT22;2578;51.622;7.046;2022-08-19T04:38:23;14.50;99.90
5118;DHT22;2578;51.622;7.046;2022-08-19T04:40:50;14.60;99.90
5118;DHT22;2578;51.622;7.046;2022-08-19T04:43:37;14.60;99.90
5118;DHT22;2578;51.622;7.046;2022-08-19T04:46:11;14.80;99.90
5118;DHT22;2578;51.622;7.046;2022-08-19T04:48:38;14.90;99.90
5118;DHT22;2578;51.622;7.046;2022-08-19T04:51:09;15.00;99.90
5118;DHT22;2578;51.622;7.046;2022-08-19T04:53:37;14.90;99.90
5118;DHT22;2578;51.622;7.046;2022-08-19T04:56:11;14.90;99.90
5118;DHT22;2578;51.622;7.046;2022-08-19T04:58:40;15.00;99.90
5118;DHT22;2578;51.622;7.046;2022-08-19T05:01:10;15.00;99.90
5118;DHT22;2578;51.622;7.046;2022-08-19T05:03:36;15.00;99.90
5118;DHT22;2578;51.622;7.046;2022-08-19T05:06:08;15.00;99.90
5118;DHT22;2578;51.622;7.046;2022-08-19T05:08:37;15.10;99.90
5118;DHT22;2578;51.622;7.046;2022-08-19T05:11:19;15.20;99.90
5118;DHT22;2578;51.622;7.046;2022-08-19T05:13:46;15.30;99.90
5118;DHT22;2578;51.622;7.046;2022-08-19T05:16:15;15.50;99.90
5118;DHT22;2578;51.622;7.046;2022-08-19T05:18:41;15.60;99.90
5118;DHT22;2578;51.622;7.046;2022-08-19T05:21:26;15.70;99.90
5118;DHT22;2578;51.622;7.046;2022-08-19T05:24:11;15.80;99.90
5118;DHT22;2578;51.622;7.046;2022-08-19T05:26:38;16.20;99.90
5118;DHT22;2578;51.622;7.046;2022-08-19T05:29:05;16.10;99.90
5118;DHT22;2578;51.622;7.046;2022-08-19T05:31:32;16.40;99.90
5118;DHT22;2578;51.622;7.046;2022-08-19T05:33:58;16.70;99.90
5118;DHT22;2578;51.622;7.046;2022-08-19T05:36:26;17.20;99.90
5118;DHT22;2578;51.622;7.046;2022-08-19T05:38:52;17.20;99.90
5118;DHT22;2578;51.622;7.046;2022-08-19T05:41:20;17.50;99.90
5118;DHT22;2578;51.622;7.046;2022-08-19T05:43:46;17.70;99.90
5118;DHT22;2578;51.622;7.046;2022-08-19T05:46:19;17.80;99.90
5118;DHT22;2578;51.622;7.046;2022-08-19T05:48:45;17.90;99.90
5118;DHT22;2578;51.622;7.046;2022-08-19T05:51:12;18.00;99.90
5118;DHT22;2578;51.622;7.046;2022-08-19T05:53:38;18.10;99.90
5118;DHT22;2578;51.622;7.046;2022-08-19T05:56:07;18.30;99.90
5118;DHT22;2578;51.622;7.046;2022-08-19T05:58:34;18.40;99.90
5118;DHT22;2578;51.622;7.046;2022-08-19T06:01:00;18.50;99.90
5118;DHT22;2578;51.622;7.046;2022-08-19T06:03:32;18.60;99.90
5118;DHT22;2578;51.622;7.046;2022-08-19T06:05:59;18.60;99.90
5118;DHT22;2578;51.622;7.046;2022-08-19T06:08:26;19.00;99.90
5118;DHT22;2578;51.622;7.046;2022-08-19T06:10:52;19.20;99.90
5118;DHT22;2578;51.622;7.046;2022-08-19T06:13:18;19.50;99.90
5118;DHT22;2578;51.622;7.046;2022-08-19T06:15:45;19.80;99.90
5118;DHT22;2578;51.622;7.046;2022-08-19T06:18:12;20.10;99.90
5118;DHT22;2578;51.622;7.046;2022-08-19T06:20:38;20.60;99.90
5118;DHT22;2578;51.622;7.046;2022-08-19T06:23:04;20.80;99.90
5118;DHT22;2578;51.622;7.046;2022-08-19T06:25:29;21.20;99.90
5118;DHT22;2578;51.622;7.046;2022-08-19T06:27:55;21.70;99.90
5118;DHT22;2578;51.622;7.046;2022-08-19T06:30:21;21.80;99.90
5118;DHT22;2578;51.622;7.046;2022-08-19T06:32:47;21.90;99.90
5118;DHT22;2578;51.622;7.046;2022-08-19T06:35:12;21.90;99.90
5118;DHT22;2578;51.622;7.046;2022-08-19T06:37:40;22.00;99.90
5118;DHT22;2578;51.622;7.046;2022-08-19T06:40:07;21.90;99.90
5118;DHT22;2578;51.622;7.046;2022-08-19T06:42:34;21.60;99.90
5118;DHT22;2578;51.622;7.046;2022-08-19T06:45:01;21.60;99.90
5118;DHT22;2578;51.622;7.046;2022-08-19T06:47:29;21.70;99.90
5118;DHT22;2578;51.622;7.046;2022-08-19T06:49:57;22.00;99.90
5118;DHT22;2578;51.622;7.046;2022-08-19T06:52:29;22.20;99.90
5118;DHT22;2578;51.622;7.046;2022-08-19T06:54:54;22.10;99.90
5118;DHT22;2578;51.622;7.046;2022-08-19T06:57:25;22.30;99.90
5118;DHT22;2578;51.622;7.046;2022-08-19T06:59:51;22.40;99.90
5118;DHT22;2578;51.622;7.046;2022-08-19T07:02:18;22.50;99.90
5118;DHT22;2578;51.622;7.046;2022-08-19T07:04:44;22.70;99.90
5118;DHT22;2578;51.622;7.046;2022-08-19T07:07:13;23.00;99.90
5118;DHT22;2578;51.622;7.046;2022-08-19T07:09:42;23.40;99.90
5118;DHT22;2578;51.622;7.046;2022-08-19T07:12:09;23.70;99.90
5118;DHT22;2578;51.622;7.046;2022-08-19T07:14:36;24.10;99.90
5118;DHT22;2578;51.622;7.046;2022-08-19T07:17:05;24.30;99.90
5118;DHT22;2578;51.622;7.046;2022-08-19T07:19:32;24.40;99.90
5118;DHT22;2578;51.622;7.046;2022-08-19T07:22:01;24.50;99.90
5118;DHT22;2578;51.622;7.046;2022-08-19T07:24:27;24.60;99.90
5118;DHT22;2578;51.622;7.046;2022-08-19T07:26:55;24.70;99.90
5118;DHT22;2578;51.622;7.046;2022-08-19T07:29:22;24.80;99.90
5118;DHT22;2578;51.622;7.046;2022-08-19T07:31:49;24.90;99.90
5118;DHT22;2578;51.622;7.046;2022-08-19T07:34:16;24.90;99.90
5118;DHT22;2578;51.622;7.046;2022-08-19T07:36:42;25.00;99.90
5118;DHT22;2578;51.622;7.046;2022-08-19T07:39:12;24.90;99.90
5118;DHT22;2578;51.622;7.046;2022-08-19T07:41:38;24.90;99.90
5118;DHT22;2578;51.622;7.046;2022-08-19T07:44:05;24.70;99.90
5118;DHT22;2578;51.622;7.046;2022-08-19T07:46:34;24.60;99.90
5118;DHT22;2578;51.622;7.046;2022-08-19T07:49:00;24.60;99.90
5118;DHT22;2578;51.622;7.046;2022-08-19T07:51:26;24.60;99.90
5118;DHT22;2578;51.622;7.046;2022-08-19T07:53:53;24.50;99.90
5118;DHT22;2578;51.622;7.046;2022-08-19T07:56:20;24.50;99.90
5118;DHT22;2578;51.622;7.046;2022-08-19T07:58:47;24.40;99.90
5118;DHT22;2578;51.622;7.046;2022-08-19T08:01:17;24.30;99.90
5118;DHT22;2578;51.622;7.046;2022-08-19T08:03:44;24.20;99.90
5118;DHT22;2578;51.622;7.046;2022-08-19T08:06:28;24.20;99.90
5118;DHT22;2578;51.622;7.046;2022-08-19T08:09:14;24.20;99.90
5118;DHT22;2578;51.622;7.046;2022-08-19T08:11:50;24.30;99.90
5118;DHT22;2578;51.622;7.046;2022-08-19T08:14:27;24.60;99.90
5118;DHT22;2578;51.622;7.046;2022-08-19T08:16:53;24.70;99.90
5118;DHT22;2578;51.622;7.046;2022-08-19T08:19:20;24.80;99.90
5118;DHT22;2578;51.622;7.046;2022-08-19T08:21:47;24.80;99.90
5118;DHT22;2578;51.622;7.046;2022-08-19T08:24:13;25.00;99.90
5118;DHT22;2578;51.622;7.046;2022-08-19T08:26:40;25.20;99.90
5118;DHT22;2578;51.622;7.046;2022-08-19T08:29:06;25.20;99.90
5118;DHT22;2578;51.622;7.046;2022-08-19T08:31:33;25.60;99.90
5118;DHT22;2578;51.622;7.046;2022-08-19T08:33:59;25.60;99.90
5118;DHT22;2578;51.622;7.046;2022-08-19T08:36:24;25.80;99.90
5118;DHT22;2578;51.622;7.046;2022-08-19T08:38:50;25.90;99.90
5118;DHT22;2578;51.622;7.046;2022-08-19T08:44:20;26.40;99.90
5118;DHT22;2578;51.622;7.046;2022-08-19T08:46:50;26.50;99.90
5118;DHT22;2578;51.622;7.046;2022-08-19T08:52:05;27.10;99.90
5118;DHT22;2578;51.622;7.046;2022-08-19T08:54:39;27.10;99.90
5118;DHT22;2578;51.622;7.046;2022-08-19T08:57:18;27.00;99.90
5118;DHT22;2578;51.622;7.046;2022-08-19T08:59:50;26.70;99.90
5118;DHT22;2578;51.622;7.046;2022-08-19T09:02:19;26.40;99.90
5118;DHT22;2578;51.622;7.046;2022-08-19T09:04:45;26.30;99.90
5118;DHT22;2578;51.622;7.046;2022-08-19T09:09:50;25.80;99.90
5118;DHT22;2578;51.622;7.046;2022-08-19T09:15:07;25.60;99.90
5118;DHT22;2578;51.622;7.046;2022-08-19T09:17:34;25.80;99.90
5118;DHT22;2578;51.622;7.046;2022-08-19T09:22:37;26.40;99.90
5118;DHT22;2578;51.622;7.046;2022-08-19T09:25:05;27.00;99.90
5118;DHT22;2578;51.622;7.046;2022-08-19T09:27:30;27.10;99.90
5118;DHT22;2578;51.622;7.046;2022-08-19T09:29:57;27.10;99.90
5118;DHT22;2578;51.622;7.046;2022-08-19T09:32:23;27.10;99.90
5118;DHT22;2578;51.622;7.046;2022-08-19T09:34:50;27.40;99.90
5118;DHT22;2578;51.622;7.046;2022-08-19T09:37:19;28.00;99.90
5118;DHT22;2578;51.622;7.046;2022-08-19T09:39:45;28.50;99.90
5118;DHT22;2578;51.622;7.046;2022-08-19T09:42:11;28.60;95.80
5118;DHT22;2578;51.622;7.046;2022-08-19T09:44:40;28.60;94.30
5118;DHT22;2578;51.622;7.046;2022-08-19T09:47:05;28.40;92.70
5118;DHT22;2578;51.622;7.046;2022-08-19T09:49:32;27.80;91.80
5118;DHT22;2578;51.622;7.046;2022-08-19T09:51:59;27.30;94.80
5118;DHT22;2578;51.622;7.046;2022-08-19T09:54:25;27.10;97.10
5118;DHT22;2578;51.622;7.046;2022-08-19T09:56:51;27.40;94.50
5118;DHT22;2578;51.622;7.046;2022-08-19T09:59:17;27.50;94.90
5118;DHT22;2578;51.622;7.046;2022-08-19T10:01:43;27.70;92.90
5118;DHT22;2578;51.622;7.046;2022-08-19T10:04:09;27.70;85.60
5118;DHT22;2578;51.622;7.046;2022-08-19T10:06:37;27.50;82.10
5118;DHT22;2578;51.622;7.046;2022-08-19T10:09:05;27.50;82.80
5118;DHT22;2578;51.622;7.046;2022-08-19T10:11:32;27.70;82.40
5118;DHT22;2578;51.622;7.046;2022-08-19T10:13:58;28.00;87.30
5118;DHT22;2578;51.622;7.046;2022-08-19T10:16:25;27.80;73.10
5118;DHT22;2578;51.622;7.046;2022-08-19T10:18:51;27.80;78.90
5118;DHT22;2578;51.622;7.046;2022-08-19T10:21:27;28.20;77.80
5118;DHT22;2578;51.622;7.046;2022-08-19T10:23:55;28.30;73.30
5118;DHT22;2578;51.622;7.046;2022-08-19T10:26:26;28.20;70.30
5118;DHT22;2578;51.622;7.046;2022-08-19T10:28:52;28.00;74.70
5118;DHT22;2578;51.622;7.046;2022-08-19T10:31:27;27.80;72.60
5118;DHT22;2578;51.622;7.046;2022-08-19T10:33:55;27.80;73.30
5118;DHT22;2578;51.622;7.046;2022-08-19T10:36:27;27.60;72.90
5118;DHT22;2578;51.622;7.046;2022-08-19T10:38:55;27.50;76.40
5118;DHT22;2578;51.622;7.046;2022-08-19T10:41:29;27.80;73.60
5118;DHT22;2578;51.622;7.046;2022-08-19T10:43:57;28.00;58.40
5118;DHT22;2578;51.622;7.046;2022-08-19T10:46:24;28.50;59.20
5118;DHT22;2578;51.622;7.046;2022-08-19T10:48:51;29.10;60.20
5118;DHT22;2578;51.622;7.046;2022-08-19T10:51:17;29.60;56.30
5118;DHT22;2578;51.622;7.046;2022-08-19T10:54:01;29.10;52.90
5118;DHT22;2578;51.622;7.046;2022-08-19T10:56:28;29.20;47.30
5118;DHT22;2578;51.622;7.046;2022-08-19T10:59:14;28.90;47.40
5118;DHT22;2578;51.622;7.046;2022-08-19T11:01:42;28.40;44.80
5118;DHT22;2578;51.622;7.046;2022-08-19T11:04:07;28.20;50.70
5118;DHT22;2578;51.622;7.046;2022-08-19T11:06:37;28.60;46.70
5118;DHT22;2578;51.622;7.046;2022-08-19T11:09:04;28.70;47.50
5118;DHT22;2578;51.622;7.046;2022-08-19T11:11:31;29.60;44.90
5118;DHT22;2578;51.622;7.046;2022-08-19T11:13:58;30.30;34.50
5118;DHT22;2578;51.622;7.046;2022-08-19T11:16:25;30.40;23.50
5118;DHT22;2578;51.622;7.046;2022-08-19T11:18:54;30.50;21.10
5118;DHT22;2578;51.622;7.046;2022-08-19T11:21:32;31.30;17.50
5118;DHT22;2578;51.622;7.046;2022-08-19T11:24:01;31.30;15.30
5118;DHT22;2578;51.622;7.046;2022-08-19T11:26:29;30.10;20.50
5118;DHT22;2578;51.622;7.046;2022-08-19T11:28:56;30.10;20.90
5118;DHT22;2578;51.622;7.046;2022-08-19T11:31:25;29.90;18.80
5118;DHT22;2578;51.622;7.046;2022-08-19T11:33:51;29.60;20.10
5118;DHT22;2578;51.622;7.046;2022-08-19T11:36:18;29.60;18.90
5118;DHT22;2578;51.622;7.046;2022-08-19T11:38:46;29.70;16.40
5118;DHT22;2578;51.622;7.046;2022-08-19T11:41:14;29.70;17.30
5118;DHT22;2578;51.622;7.046;2022-08-19T11:43:40;29.80;13.60
5118;DHT22;2578;51.622;7.046;2022-08-19T11:46:08;29.80;12.10
5118;DHT22;2578;51.622;7.046;2022-08-19T11:48:36;29.40;13.00
5118;DHT22;2578;51.622;7.046;2022-08-19T11:51:06;29.50;12.70
5118;DHT22;2578;51.622;7.046;2022-08-19T11:53:32;29.50;13.10
5118;DHT22;2578;51.622;7.046;2022-08-19T11:55:58;28.90;16.60
5118;DHT22;2578;51.622;7.046;2022-08-19T11:58:24;28.90;16.80
5118;DHT22;2578;51.622;7.046;2022-08-19T12:00:50;28.80;15.80
5118;DHT22;2578;51.622;7.046;2022-08-19T12:03:16;28.50;16.60
5118;DHT22;2578;51.622;7.046;2022-08-19T12:05:42;28.90;17.10
5118;DHT22;2578;51.622;7.046;2022-08-19T12:08:08;29.20;13.60
5118;DHT22;2578;51.622;7.046;2022-08-19T12:10:35;29.90;13.60
5118;DHT22;2578;51.622;7.046;2022-08-19T12:13:01;30.00;10.40
5118;DHT22;2578;51.622;7.046;2022-08-19T12:15:27;29.50;10.00
5118;DHT22;2578;51.622;7.046;2022-08-19T12:17:56;29.40;13.20
5118;DHT22;2578;51.622;7.046;2022-08-19T12:20:23;29.30;12.50
5118;DHT22;2578;51.622;7.046;2022-08-19T12:22:50;29.40;10.90
5118;DHT22;2578;51.622;7.046;2022-08-19T12:25:16;29.60;11.60
5118;DHT22;2578;51.622;7.046;2022-08-19T12:27:42;30.10;11.80
5118;DHT22;2578;51.622;7.046;2022-08-19T12:30:10;30.90;8.40
5118;DHT22;2578;51.622;7.046;2022-08-19T12:32:37;31.70;3.00
5118;DHT22;2578;51.622;7.046;2022-08-19T12:35:03;32.00;1.00
5118;DHT22;2578;51.622;7.046;2022-08-19T12:37:29;32.00;1.00
5118;DHT22;2578;51.622;7.046;2022-08-19T12:39:57;32.00;1.00
5118;DHT22;2578;51.622;7.046;2022-08-19T12:42:22;31.90;1.00
5118;DHT22;2578;51.622;7.046;2022-08-19T12:44:48;31.90;1.00
5118;DHT22;2578;51.622;7.046;2022-08-19T12:47:14;31.90;1.00
5118;DHT22;2578;51.622;7.046;2022-08-19T12:49:40;30.80;1.00
5118;DHT22;2578;51.622;7.046;2022-08-19T12:52:07;30.20;1.00
5118;DHT22;2578;51.622;7.046;2022-08-19T12:54:34;30.40;1.00
5118;DHT22;2578;51.622;7.046;2022-08-19T12:57:04;30.50;1.00
5118;DHT22;2578;51.622;7.046;2022-08-19T12:59:29;30.80;1.00
5118;DHT22;2578;51.622;7.046;2022-08-19T13:01:55;31.30;1.00
5118;DHT22;2578;51.622;7.046;2022-08-19T13:04:21;31.80;1.00
5118;DHT22;2578;51.622;7.046;2022-08-19T13:06:46;31.50;1.00
5118;DHT22;2578;51.622;7.046;2022-08-19T13:09:12;31.40;1.00
5118;DHT22;2578;51.622;7.046;2022-08-19T13:11:38;30.50;1.00
5118;DHT22;2578;51.622;7.046;2022-08-19T13:14:04;30.40;1.00
5118;DHT22;2578;51.622;7.046;2022-08-19T13:16:30;31.20;1.00
5118;DHT22;2578;51.622;7.046;2022-08-19T13:18:57;31.10;1.00
5118;DHT22;2578;51.622;7.046;2022-08-19T13:21:25;31.40;1.00
5118;DHT22;2578;51.622;7.046;2022-08-19T13:23:52;31.80;1.00
5118;DHT22;2578;51.622;7.046;2022-08-19T13:26:18;32.40;1.00
5118;DHT22;2578;51.622;7.046;2022-08-19T13:28:44;33.00;1.00
5118;DHT22;2578;51.622;7.046;2022-08-19T13:31:31;33.00;1.00
5118;DHT22;2578;51.622;7.046;2022-08-19T13:34:17;32.80;1.00
5118;DHT22;2578;51.622;7.046;2022-08-19T13:36:43;33.20;1.00
5118;DHT22;2578;51.622;7.046;2022-08-19T13:39:08;33.20;1.00
5118;DHT22;2578;51.622;7.046;2022-08-19T13:41:35;32.40;1.00
5118;DHT22;2578;51.622;7.046;2022-08-19T13:44:02;31.20;1.00
5118;DHT22;2578;51.622;7.046;2022-08-19T13:48:54;30.40;1.00
5118;DHT22;2578;51.622;7.046;2022-08-19T13:51:20;30.20;1.00
5118;DHT22;2578;51.622;7.046;2022-08-19T13:53:46;30.30;1.00
5118;DHT22;2578;51.622;7.046;2022-08-19T13:56:15;31.00;1.00
5118;DHT22;2578;51.622;7.046;2022-08-19T13:58:41;31.50;1.00
5118;DHT22;2578;51.622;7.046;2022-08-19T14:01:07;31.70;1.00
5118;DHT22;2578;51.622;7.046;2022-08-19T14:03:34;31.50;1.00
5118;DHT22;2578;51.622;7.046;2022-08-19T14:06:00;31.10;1.00
5118;DHT22;2578;51.622;7.046;2022-08-19T14:08:26;31.30;1.00
5118;DHT22;2578;51.622;7.046;2022-08-19T14:10:54;31.10;1.00
5118;DHT22;2578;51.622;7.046;2022-08-19T14:13:22;30.70;1.00
5118;DHT22;2578;51.622;7.046;2022-08-19T14:15:48;30.90;1.00
5118;DHT22;2578;51.622;7.046;2022-08-19T14:18:16;30.90;1.00
5118;DHT22;2578;51.622;7.046;2022-08-19T14:20:42;30.90;1.00
5118;DHT22;2578;51.622;7.046;2022-08-19T14:23:08;31.40;1.00
5118;DHT22;2578;51.622;7.046;2022-08-19T14:25:34;31.10;1.00
5118;DHT22;2578;51.622;7.046;2022-08-19T14:28:00;30.60;1.00
5118;DHT22;2578;51.622;7.046;2022-08-19T14:30:29;30.40;1.00
5118;DHT22;2578;51.622;7.046;2022-08-19T14:32:59;29.70;1.00
5118;DHT22;2578;51.622;7.046;2022-08-19T14:35:26;29.30;1.00
5118;DHT22;2578;51.622;7.046;2022-08-19T14:37:53;28.70;1.00
5118;DHT22;2578;51.622;7.046;2022-08-19T14:40:25;28.70;1.00
5118;DHT22;2578;51.622;7.046;2022-08-19T14:42:53;28.60;1.00
5118;DHT22;2578;51.622;7.046;2022-08-19T14:45:25;28.80;1.00
5118;DHT22;2578;51.622;7.046;2022-08-19T14:47:52;29.40;1.00
5118;DHT22;2578;51.622;7.046;2022-08-19T14:50:18;29.70;1.00
5118;DHT22;2578;51.622;7.046;2022-08-19T14:52:46;30.00;1.00
5118;DHT22;2578;51.622;7.046;2022-08-19T14:55:13;30.30;1.00
5118;DHT22;2578;51.622;7.046;2022-08-19T14:57:41;30.50;1.00
5118;DHT22;2578;51.622;7.046;2022-08-19T15:00:07;30.10;1.00
5118;DHT22;2578;51.622;7.046;2022-08-19T15:02:37;29.70;1.00
5118;DHT22;2578;51.622;7.046;2022-08-19T15:05:02;29.70;1.00
5118;DHT22;2578;51.622;7.046;2022-08-19T15:07:28;30.00;1.00
5118;DHT22;2578;51.622;7.046;2022-08-19T15:09:54;29.90;1.00
5118;DHT22;2578;51.622;7.046;2022-08-19T15:12:20;30.20;1.00
5118;DHT22;2578;51.622;7.046;2022-08-19T15:14:47;30.60;1.00
5118;DHT22;2578;51.622;7.046;2022-08-19T15:17:16;30.70;1.00
5118;DHT22;2578;51.622;7.046;2022-08-19T15:19:43;30.10;1.00
5118;DHT22;2578;51.622;7.046;2022-08-19T15:22:08;29.40;1.00
5118;DHT22;2578;51.622;7.046;2022-08-19T15:24:35;28.90;1.00
5118;DHT22;2578;51.622;7.046;2022-08-19T15:27:01;28.50;1.00
5118;DHT22;2578;51.622;7.046;2022-08-19T15:29:27;28.40;1.00
5118;DHT22;2578;51.622;7.046;2022-08-19T15:31:54;28.60;1.00
5118;DHT22;2578;51.622;7.046;2022-08-19T15:34:24;28.70;1.00
5118;DHT22;2578;51.622;7.046;2022-08-19T15:36:51;28.70;1.00
5118;DHT22;2578;51.622;7.046;2022-08-19T15:39:17;28.70;1.00
5118;DHT22;2578;51.622;7.046;2022-08-19T15:41:44;28.70;1.00
5118;DHT22;2578;51.622;7.046;2022-08-19T15:44:13;28.80;1.00
5118;DHT22;2578;51.622;7.046;2022-08-19T15:46:41;28.20;1.00
5118;DHT22;2578;51.622;7.046;2022-08-19T15:49:10;28.20;1.00
5118;DHT22;2578;51.622;7.046;2022-08-19T15:51:37;28.30;1.00
5118;DHT22;2578;51.622;7.046;2022-08-19T15:54:06;28.40;1.00
5118;DHT22;2578;51.622;7.046;2022-08-19T15:56:33;28.80;1.00
5118;DHT22;2578;51.622;7.046;2022-08-19T15:59:32;28.90;1.00
5118;DHT22;2578;51.622;7.046;2022-08-19T16:02:18;29.10;1.00
5118;DHT22;2578;51.622;7.046;2022-08-19T16:05:05;29.10;1.00
5118;DHT22;2578;51.622;7.046;2022-08-19T16:07:50;29.10;1.00
5118;DHT22;2578;51.622;7.046;2022-08-19T16:10:16;29.10;1.00
5118;DHT22;2578;51.622;7.046;2022-08-19T16:12:41;29.00;1.00
5118;DHT22;2578;51.622;7.046;2022-08-19T16:15:11;28.50;1.00
5118;DHT22;2578;51.622;7.046;2022-08-19T16:17:39;28.30;1.00
5118;DHT22;2578;51.622;7.046;2022-08-19T16:20:09;28.10;1.00
5118;DHT22;2578;51.622;7.046;2022-08-19T16:22:39;28.30;1.00
5118;DHT22;2578;51.622;7.046;2022-08-19T16:25:06;28.50;1.00